Terminal Aerodrome Forecast
Issued by NWS Medford, OR

Home | Current Version | Previous Version | Text Only | Print | Product List | Glossary On
Versions: 1 2 3 4 5 6 7 8 9 10 11 12 13 14 15 16 17 18 19 20 21 22 23 24 25
000
FTUS46 KMFR 231256 AAA
TAFMFR
TAF AMD
KMFR 231256Z 2313/2412 00000KT P6SM BKN006 OVC012
     FM231400 00000KT 3SM BR BKN004 BKN010
     FM231900 VRB03KT P6SM FEW005 SCT015 BKN200
     FM232000 VRB03KT P6SM SCT040 SCT120 BKN250
     FM241000 00000KT 6SM BR FEW007 BKN100 BKN250=

USA.gov is the U.S. government's official web portal to all federal, state and local government web resources and services.